Disclaimer

Please do not use the information listed here in-flight or in-navigation, as they are not provided to us by the airports but are provided by volunteers, so they might be outdated.

Search


Regions


Airport information page

Radio informations:
INFO - 118.3 MHz

Airport informations:
Latitude: 36° 14' 24.22" N
Longitude: 050° 02' 49.75" E
Elevation: 4184 feet - 1275 meters
Operating hours: Remarks
Operating agency: Civil government, landing fees and diplomatic clearance may be required
Timezone: UTC+3:30
Fuel: JP-4, Wide cut turbine fuel MIL Spec T-5624

100/130 MIL Spec, low lead, aviation gasoline (BLUE)

Runway information:
10/28 - 3670 x 131 feet< - >1119 x 40 meters

Recent METARs:
OIIK 182300Z 01002KT CAVOK 05/03 Q1020
OIIK 182300Z 01002KT CAVOK 05/03 Q1020
OIIK 182300Z 01002KT CAVOK 05/03 Q1020

Airport on the map: